createdAt,value
2023-03-26T00:08:09.400Z,53.10
2023-03-26T00:18:14.673Z,52.71
2023-03-26T00:28:19.720Z,52.44
2023-03-26T00:38:25.605Z,53.39
2023-03-26T00:48:42.257Z,53.92
2023-03-26T00:58:41.236Z,54.07
2023-03-26T01:08:46.503Z,53.74
2023-03-26T01:18:51.703Z,52.81
2023-03-26T01:28:56.902Z,53.94
2023-03-26T01:39:01.800Z,53.71
2023-03-26T01:49:06.963Z,53.98
2023-03-26T01:59:12.400Z,54.02
2023-03-26T02:09:17.529Z,54.00
2023-03-26T02:19:22.933Z,54.28
2023-03-26T02:29:27.982Z,54.25
2023-03-26T02:39:33.414Z,54.01
2023-03-26T02:49:38.741Z,53.95
2023-03-26T02:59:43.946Z,54.28
2023-03-26T03:09:48.952Z,53.87
2023-03-26T03:19:54.354Z,54.17
2023-03-26T03:29:59.516Z,53.86
2023-03-26T03:40:04.797Z,53.92
2023-03-26T03:50:10.174Z,54.51
2023-03-26T04:00:15.571Z,54.52
2023-03-26T04:10:20.729Z,54.61
2023-03-26T04:20:25.986Z,54.73
2023-03-26T04:30:31.646Z,54.63
2023-03-26T04:40:36.832Z,54.79
2023-03-26T04:50:42.394Z,54.52
2023-03-26T05:00:47.261Z,54.33
2023-03-26T05:10:52.909Z,54.60
2023-03-26T05:20:58.792Z,54.68
2023-03-26T05:31:04.138Z,54.35
2023-03-26T05:41:09.732Z,54.29
2023-03-26T05:51:15.470Z,54.70
2023-03-26T06:01:21.090Z,54.19
2023-03-26T06:11:26.179Z,54.34
2023-03-26T06:21:31.621Z,54.67
2023-03-26T06:31:36.818Z,54.77
2023-03-26T06:41:41.679Z,54.26
2023-03-26T06:51:46.681Z,54.55
2023-03-26T07:01:51.902Z,54.47
2023-03-26T07:11:57.048Z,54.29
2023-03-26T07:22:02.357Z,54.12
2023-03-26T07:32:07.599Z,54.11
2023-03-26T07:42:13.209Z,54.73
2023-03-26T07:52:18.189Z,54.45
2023-03-26T08:02:23.419Z,54.25
2023-03-26T08:12:29.047Z,54.11
2023-03-26T08:22:34.184Z,54.36
2023-03-26T08:32:39.290Z,54.04
2023-03-26T08:42:44.659Z,54.34
2023-03-26T08:52:50.104Z,54.51
2023-03-26T09:02:55.674Z,54.34
2023-03-26T09:13:00.863Z,54.12
2023-03-26T09:23:06.179Z,54.33
2023-03-26T09:33:11.161Z,54.16
2023-03-26T09:43:16.333Z,54.19
2023-03-26T09:53:21.532Z,54.38
2023-03-26T10:03:27.083Z,53.99
2023-03-26T10:13:32.182Z,54.72
2023-03-26T10:23:37.534Z,54.29
2023-03-26T10:33:42.395Z,54.14
2023-03-26T10:43:54.842Z,54.73
2023-03-26T10:53:58.185Z,54.47
2023-03-26T11:04:03.471Z,55.36
2023-03-26T11:14:08.955Z,53.74
2023-03-26T11:24:14.238Z,55.19
2023-03-26T11:34:19.429Z,54.64
2023-03-26T11:44:24.503Z,54.75
2023-03-26T11:54:29.904Z,55.00
2023-03-26T12:04:35.320Z,54.17
2023-03-26T12:14:40.768Z,54.30
2023-03-26T12:24:46.434Z,53.77
2023-03-26T12:34:51.508Z,53.81
2023-03-26T12:44:58.901Z,53.43
2023-03-26T12:55:12.161Z,53.47
2023-03-26T13:05:15.824Z,53.42
2023-03-26T13:15:21.498Z,49.95
2023-03-26T13:25:28.213Z,52.68
2023-03-26T13:35:33.705Z,52.82
2023-03-26T13:45:39.128Z,52.89
2023-03-26T13:55:44.343Z,52.69
2023-03-26T14:05:49.604Z,52.49
2023-03-26T14:15:55.386Z,52.58
2023-03-26T14:26:01.211Z,52.56
2023-03-26T14:36:07.027Z,52.55
2023-03-26T14:46:12.639Z,53.80
2023-03-26T14:56:18.561Z,52.80
2023-03-26T15:06:24.109Z,52.71
2023-03-26T15:16:29.349Z,52.62
2023-03-26T15:26:34.667Z,52.70
2023-03-26T15:36:40.307Z,52.86
2023-03-26T15:46:45.603Z,52.73
2023-03-26T15:56:51.260Z,52.74
2023-03-26T16:06:56.542Z,52.57
2023-03-26T16:17:01.750Z,52.48
2023-03-26T16:27:07.188Z,52.47
2023-03-26T16:37:12.500Z,52.37
2023-03-26T16:47:17.739Z,52.32
2023-03-26T16:57:22.729Z,52.67
2023-03-26T17:07:28.006Z,52.45
2023-03-26T17:17:33.581Z,52.29
2023-03-26T17:27:39.138Z,52.37
2023-03-26T17:37:44.730Z,52.38
2023-03-26T17:47:49.964Z,52.52
2023-03-26T17:57:55.161Z,52.28
2023-03-26T18:08:00.223Z,52.16
2023-03-26T18:18:05.364Z,52.05
2023-03-26T18:28:10.642Z,52.11
2023-03-26T18:38:16.091Z,52.00
2023-03-26T18:48:20.901Z,51.99
2023-03-26T18:58:26.294Z,51.94
2023-03-26T19:08:34.456Z,52.19
2023-03-26T19:18:39.876Z,52.11
2023-03-26T19:28:49.470Z,51.98
2023-03-26T19:38:55.170Z,51.98
2023-03-26T19:49:00.415Z,51.83
2023-03-26T19:59:07.482Z,52.15
2023-03-26T20:09:13.733Z,51.89
2023-03-26T20:19:19.310Z,51.70
2023-03-26T20:29:24.466Z,51.85
2023-03-26T20:39:29.834Z,51.67
2023-03-26T20:49:35.343Z,51.64
2023-03-26T20:59:40.666Z,51.56
2023-03-26T21:09:45.695Z,51.49
2023-03-26T21:19:50.625Z,51.39
2023-03-26T21:29:56.241Z,51.23
2023-03-26T21:40:01.329Z,51.49
2023-03-26T21:50:06.684Z,51.55
2023-03-26T22:00:11.670Z,51.52
2023-03-26T22:10:17.044Z,51.45
2023-03-26T22:20:22.542Z,51.21
2023-03-26T22:30:27.867Z,51.22
2023-03-26T22:40:33.182Z,51.75
2023-03-26T22:50:38.098Z,52.04
2023-03-26T23:00:43.492Z,50.94
2023-03-26T23:10:48.809Z,50.99
2023-03-26T23:20:54.068Z,51.36
2023-03-26T23:30:59.688Z,51.87
2023-03-26T23:41:05.147Z,52.07
2023-03-26T23:51:10.426Z,51.96
